createdAt,value
2022-12-15T00:00:13.326Z,100059.12
2022-12-15T00:02:59.314Z,100054.71
2022-12-15T00:05:49.898Z,100061.25
2022-12-15T00:08:36.571Z,100045.10
2022-12-15T00:11:23.405Z,100056.74
2022-12-15T00:14:09.807Z,100049.84
2022-12-15T00:16:56.018Z,100059.45
2022-12-15T00:19:42.574Z,100072.80
2022-12-15T00:22:28.797Z,100078.45
2022-12-15T00:25:15.381Z,100086.46
2022-12-15T00:28:01.623Z,100092.80
2022-12-15T00:30:50.075Z,100085.91
2022-12-15T00:33:36.770Z,100085.91
2022-12-15T00:36:23.352Z,100075.70
2022-12-15T00:38:51.130Z,100070.73
2022-12-15T00:41:19.894Z,100070.64
2022-12-15T00:43:48.034Z,100065.63
2022-12-15T00:46:34.348Z,100076.33
2022-12-15T00:49:02.280Z,100081.88
2022-12-15T00:51:48.503Z,100077.02
2022-12-15T00:54:35.009Z,100080.97
2022-12-15T00:57:21.121Z,100090.84
2022-12-15T01:00:07.671Z,100105.43
2022-12-15T01:02:54.183Z,100101.21
2022-12-15T01:05:40.474Z,100107.23
2022-12-15T01:08:26.815Z,100110.04
2022-12-15T01:11:13.316Z,100128.71
2022-12-15T01:13:59.674Z,100138.55
2022-12-15T01:16:46.154Z,100132.12
2022-12-15T01:19:32.385Z,100130.77
2022-12-15T01:22:00.090Z,100134.83
2022-12-15T01:24:27.748Z,100153.96
2022-12-15T01:26:55.456Z,100156.90
2022-12-15T01:29:23.283Z,100157.81
2022-12-15T01:31:50.930Z,100151.93
2022-12-15T01:34:21.113Z,100143.00
2022-12-15T01:36:48.764Z,100140.06
2022-12-15T01:39:17.154Z,100146.83
2022-12-15T01:41:44.811Z,100141.17
2022-12-15T01:44:25.318Z,100158.50
2022-12-15T01:46:57.059Z,100167.56
2022-12-15T01:49:29.830Z,100179.79
2022-12-15T01:52:01.529Z,100162.82
2022-12-15T01:54:44.378Z,100162.33
2022-12-15T01:57:22.608Z,100170.27
2022-12-15T01:59:57.002Z,100166.19
2022-12-15T02:02:27.851Z,100164.48
2022-12-15T02:04:58.971Z,100173.55
2022-12-15T02:07:27.396Z,100174.79
2022-12-15T02:09:59.476Z,100176.03
2022-12-15T02:12:42.579Z,100159.38
2022-12-15T02:15:48.569Z,100160.20
2022-12-15T02:18:34.901Z,100155.52
2022-12-15T02:21:08.167Z,100155.07
2022-12-15T02:23:57.535Z,100165.27
2022-12-15T02:27:02.980Z,100178.98
2022-12-15T02:29:42.951Z,100179.89
2022-12-15T02:32:15.548Z,100175.34
2022-12-15T02:34:46.721Z,100170.80
2022-12-15T02:37:26.059Z,100164.39
2022-12-15T02:39:53.826Z,100162.33
2022-12-15T02:42:22.670Z,100159.38
2022-12-15T02:44:55.337Z,100154.97
2022-12-15T02:47:52.443Z,100149.97
2022-12-15T02:50:35.545Z,100145.45
2022-12-15T02:53:05.998Z,100153.01
2022-12-15T02:55:50.378Z,100159.59
2022-12-15T02:58:32.666Z,100157.20
2022-12-15T03:01:29.112Z,100174.07
2022-12-15T03:03:58.553Z,100179.17
2022-12-15T03:06:28.018Z,100184.40
2022-12-15T03:08:55.717Z,100174.66
2022-12-15T03:11:23.856Z,100188.45
2022-12-15T03:13:52.027Z,100188.45
2022-12-15T03:16:19.702Z,100186.76
2022-12-15T03:18:48.162Z,100179.07
2022-12-15T03:21:16.036Z,100189.47
2022-12-15T03:23:43.757Z,100196.14
2022-12-15T03:26:11.460Z,100191.30
2022-12-15T03:28:39.137Z,100190.81
2022-12-15T03:31:07.038Z,100181.42
2022-12-15T03:33:35.580Z,100189.47
2022-12-15T03:36:03.462Z,100188.55
2022-12-15T03:38:31.163Z,100190.58
2022-12-15T03:40:58.836Z,100196.24
2022-12-15T03:43:26.677Z,100207.69
2022-12-15T03:45:54.388Z,100213.11
2022-12-15T03:48:22.927Z,100202.62
2022-12-15T03:50:51.299Z,100203.73
2022-12-15T03:53:19.028Z,100201.70
2022-12-15T03:55:46.698Z,100213.80
2022-12-15T03:58:14.341Z,100212.69
2022-12-15T04:00:42.064Z,100213.11
2022-12-15T04:03:12.493Z,100207.36
2022-12-15T04:05:40.418Z,100202.02
2022-12-15T04:08:08.232Z,100205.98
2022-12-15T04:10:36.690Z,100206.31
2022-12-15T04:13:07.937Z,100202.23
2022-12-15T04:15:37.480Z,100198.95
2022-12-15T04:18:11.762Z,100200.42
2022-12-15T04:20:40.189Z,100204.71
2022-12-15T04:23:11.606Z,100214.68
2022-12-15T04:25:58.181Z,100195.65
2022-12-15T04:28:44.300Z,100192.67
2022-12-15T04:31:36.305Z,100202.09
2022-12-15T04:34:27.642Z,100210.50
2022-12-15T04:37:14.210Z,100215.01
2022-12-15T04:40:05.373Z,100222.59
2022-12-15T04:42:53.321Z,100227.80
2022-12-15T04:45:42.726Z,100214.45
2022-12-15T04:48:29.895Z,100210.23
2022-12-15T04:51:16.072Z,100218.61
2022-12-15T04:54:04.286Z,100209.22
2022-12-15T04:56:51.895Z,100219.29
2022-12-15T04:59:38.202Z,100220.66
2022-12-15T05:02:24.482Z,100221.13
2022-12-15T05:05:10.866Z,100228.02
2022-12-15T05:07:57.170Z,100235.71
2022-12-15T05:10:43.411Z,100236.16
2022-12-15T05:13:29.865Z,100236.16
2022-12-15T05:16:16.767Z,100224.39
2022-12-15T05:19:02.919Z,100240.02
2022-12-15T05:21:49.022Z,100239.66
2022-12-15T05:24:35.151Z,100243.42
2022-12-15T05:27:21.716Z,100245.48
2022-12-15T05:30:07.544Z,100250.78
2022-12-15T05:32:35.299Z,100252.84
2022-12-15T05:35:03.042Z,100247.19
2022-12-15T05:37:30.756Z,100247.19
2022-12-15T05:39:58.437Z,100249.90
2022-12-15T05:42:26.226Z,100256.80
2022-12-15T05:44:54.018Z,100264.48
2022-12-15T05:47:21.680Z,100265.40
2022-12-15T05:49:50.407Z,100266.97
2022-12-15T05:52:18.477Z,100276.62
2022-12-15T05:54:46.115Z,100278.61
2022-12-15T05:57:13.690Z,100269.68
2022-12-15T05:59:41.285Z,100278.84
2022-12-15T06:02:08.969Z,100280.90
2022-12-15T06:04:36.711Z,100284.17
2022-12-15T06:07:04.488Z,100283.02
2022-12-15T06:09:32.257Z,100274.23
2022-12-15T06:11:59.903Z,100269.09
2022-12-15T06:14:27.596Z,100266.64
2022-12-15T06:16:55.325Z,100260.98
2022-12-15T06:19:23.220Z,100276.02
2022-12-15T06:21:50.966Z,100274.00
2022-12-15T06:24:18.634Z,100274.42
2022-12-15T06:26:46.554Z,100263.70
2022-12-15T06:29:17.571Z,100252.29
2022-12-15T06:31:45.631Z,100258.04
2022-12-15T06:34:16.034Z,100264.95
2022-12-15T06:36:44.041Z,100278.64
2022-12-15T06:39:14.754Z,100274.23
2022-12-15T06:41:43.520Z,100279.30
2022-12-15T06:44:15.431Z,100274.10
2022-12-15T06:46:43.962Z,100273.31
2022-12-15T06:49:11.745Z,100278.88
2022-12-15T06:51:39.854Z,100281.00
2022-12-15T06:54:07.585Z,100274.23
2022-12-15T06:56:40.020Z,100273.77
2022-12-15T06:59:08.738Z,100279.76
2022-12-15T07:01:37.025Z,100285.18
2022-12-15T07:04:06.620Z,100285.18
2022-12-15T07:06:38.452Z,100284.30
2022-12-15T07:09:12.903Z,100290.74
2022-12-15T07:11:41.614Z,100284.40
2022-12-15T07:14:11.056Z,100289.47
2022-12-15T07:16:38.791Z,100289.27
2022-12-15T07:19:06.973Z,100293.91
2022-12-15T07:21:34.683Z,100287.80
2022-12-15T07:24:02.849Z,100295.38
2022-12-15T07:26:31.571Z,100300.48
2022-12-15T07:28:59.293Z,100304.90
2022-12-15T07:31:26.962Z,100303.98
2022-12-15T07:33:55.581Z,100298.43
2022-12-15T07:36:23.279Z,100305.33
2022-12-15T07:38:51.741Z,100315.98
2022-12-15T07:41:20.974Z,100324.91
2022-12-15T07:43:49.364Z,100325.24
2022-12-15T07:46:18.823Z,100327.63
2022-12-15T07:48:50.110Z,100333.29
2022-12-15T07:51:19.961Z,100345.38
2022-12-15T07:53:49.100Z,100348.59
2022-12-15T07:56:16.955Z,100353.10
2022-12-15T07:58:45.350Z,100352.61
2022-12-15T08:01:14.862Z,100361.93
2022-12-15T08:03:43.004Z,100370.07
2022-12-15T08:06:13.351Z,100375.73
2022-12-15T08:08:42.138Z,100375.63
2022-12-15T08:11:12.136Z,100356.60
2022-12-15T08:16:30.303Z,100369.26
2022-12-15T08:19:00.808Z,100368.60
2022-12-15T08:21:28.548Z,100371.09
2022-12-15T08:23:56.277Z,100363.86
2022-12-15T08:26:30.095Z,100380.34
2022-12-15T08:29:17.266Z,100375.93
2022-12-15T08:31:46.270Z,100367.78
2022-12-15T08:34:13.982Z,100366.31
2022-12-15T08:36:41.821Z,100371.64
2022-12-15T08:39:09.558Z,100379.20
2022-12-15T08:41:37.264Z,100385.67
2022-12-15T08:44:05.172Z,100376.38
2022-12-15T08:46:37.317Z,100373.54
2022-12-15T08:49:05.612Z,100371.51
2022-12-15T08:51:34.714Z,100378.77
2022-12-15T08:54:03.369Z,100379.59
2022-12-15T08:56:31.449Z,100379.20
2022-12-15T08:59:02.200Z,100386.09
2022-12-15T09:01:33.429Z,100392.24
2022-12-15T09:04:02.309Z,100384.52
2022-12-15T09:06:33.002Z,100381.26
2022-12-15T09:09:03.701Z,100384.43
2022-12-15T09:11:32.125Z,100388.05
2022-12-15T09:13:59.925Z,100384.76
2022-12-15T09:16:28.897Z,100390.31
2022-12-15T09:18:59.559Z,100386.95
2022-12-15T09:21:29.806Z,100387.27
2022-12-15T09:24:01.555Z,100359.31
2022-12-15T09:26:31.998Z,100347.18
2022-12-15T09:29:00.003Z,100344.14
2022-12-15T09:31:30.224Z,100345.74
2022-12-15T09:34:01.511Z,100349.80
2022-12-15T09:36:31.080Z,100345.05
2022-12-15T09:38:59.684Z,100359.19
2022-12-15T09:41:30.432Z,100341.88
2022-12-15T09:44:08.289Z,100346.63
2022-12-15T09:46:51.133Z,100356.93
2022-12-15T09:49:31.046Z,100355.95
2022-12-15T09:52:15.408Z,100372.33
2022-12-15T09:54:44.848Z,100367.91
2022-12-15T09:57:31.138Z,100372.79
2022-12-15T10:00:12.608Z,100366.80
2022-12-15T10:03:02.182Z,100365.76
2022-12-15T10:06:25.951Z,100357.52
2022-12-15T10:09:03.976Z,100354.21
2022-12-15T10:12:14.483Z,100363.37
2022-12-15T10:15:08.309Z,100356.96
2022-12-15T10:17:57.780Z,100357.71
2022-12-15T10:20:28.781Z,100362.62
2022-12-15T10:23:01.178Z,100361.15
2022-12-15T10:25:31.379Z,100362.48
2022-12-15T10:28:23.163Z,100362.48
2022-12-15T10:31:01.308Z,100367.00
2022-12-15T10:36:17.242Z,100354.77
2022-12-15T10:38:50.478Z,100350.35
2022-12-15T10:41:27.512Z,100357.38
2022-12-15T10:43:55.936Z,100363.04
2022-12-15T10:46:26.094Z,100362.16
2022-12-15T10:49:22.399Z,100345.52
2022-12-15T10:51:57.220Z,100332.40
2022-12-15T10:54:27.854Z,100325.83
2022-12-15T10:56:57.725Z,100313.47
2022-12-15T10:59:37.020Z,100295.13
2022-12-15T11:02:25.669Z,100288.91
2022-12-15T11:04:59.572Z,100278.84
2022-12-15T11:07:36.404Z,100275.87
2022-12-15T11:10:28.105Z,100279.36
2022-12-15T11:13:22.574Z,100263.63
2022-12-15T11:15:55.253Z,100267.46
2022-12-15T11:18:41.546Z,100272.01
2022-12-15T11:21:36.133Z,100264.29
2022-12-15T11:24:30.599Z,100257.84
2022-12-15T11:27:33.221Z,100255.59
2022-12-15T11:30:17.996Z,100250.03
2022-12-15T11:32:50.172Z,100251.30
2022-12-15T11:35:26.459Z,100251.50
2022-12-15T11:38:05.538Z,100253.43
2022-12-15T11:40:40.904Z,100241.53
2022-12-15T11:43:18.108Z,100239.14
2022-12-15T11:46:21.647Z,100243.10
2022-12-15T11:49:11.342Z,100234.27
2022-12-15T11:51:47.781Z,100239.14
2022-12-15T11:54:43.062Z,100221.38
2022-12-15T11:57:44.375Z,100220.47
2022-12-15T12:00:21.735Z,100211.64
2022-12-15T12:02:58.141Z,100205.85
2022-12-15T12:05:39.435Z,100195.78
2022-12-15T12:08:29.207Z,100188.20
2022-12-15T12:11:22.812Z,100198.40
2022-12-15T12:14:12.162Z,100186.40
2022-12-15T12:17:10.549Z,100202.38
2022-12-15T12:19:53.337Z,100195.95
2022-12-15T12:22:39.531Z,100194.05
2022-12-15T12:25:27.034Z,100179.20
2022-12-15T12:28:01.316Z,100191.01
2022-12-15T12:30:39.878Z,100188.29
2022-12-15T12:33:26.386Z,100185.45
2022-12-15T12:36:05.179Z,100176.62
2022-12-15T12:38:40.732Z,100180.58
2022-12-15T12:41:25.262Z,100184.76
2022-12-15T12:43:56.811Z,100184.63
2022-12-15T12:46:50.808Z,100190.42
2022-12-15T12:49:54.605Z,100187.28
2022-12-15T12:52:38.189Z,100185.80
2022-12-15T12:55:39.782Z,100186.30
2022-12-15T12:58:34.417Z,100183.23
2022-12-15T13:01:28.939Z,100168.87
2022-12-15T13:04:13.034Z,100168.73
2022-12-15T13:06:40.661Z,100163.77
2022-12-15T13:09:20.433Z,100161.25
2022-12-15T13:11:52.258Z,100160.01
2022-12-15T13:14:26.425Z,100163.54
2022-12-15T13:17:28.412Z,100164.29
2022-12-15T13:20:02.386Z,100163.96
2022-12-15T13:22:36.815Z,100147.71
2022-12-15T13:25:29.190Z,100151.96
2022-12-15T13:28:01.729Z,100142.25
2022-12-15T13:30:29.462Z,100123.84
2022-12-15T13:33:17.673Z,100120.99
2022-12-15T13:35:45.873Z,100110.47
2022-12-15T13:38:19.350Z,100104.02
2022-12-15T13:40:57.872Z,100104.16
2022-12-15T13:43:30.441Z,100108.34
2022-12-15T13:46:10.640Z,100103.60
2022-12-15T13:48:44.499Z,100098.73
2022-12-15T13:51:34.725Z,100107.23
2022-12-15T13:54:18.572Z,100099.97
2022-12-15T13:57:02.565Z,100105.20
2022-12-15T13:59:46.410Z,100108.34
2022-12-15T14:02:37.894Z,100099.88
2022-12-15T14:05:23.230Z,100089.80
2022-12-15T14:07:58.640Z,100081.76
2022-12-15T14:10:31.308Z,100079.04
2022-12-15T14:13:02.098Z,100091.60
2022-12-15T14:15:34.024Z,100091.73
2022-12-15T14:18:03.211Z,100086.56
2022-12-15T14:20:39.702Z,100094.34
2022-12-15T14:23:25.039Z,100100.92
2022-12-15T14:25:58.803Z,100089.87
2022-12-15T14:28:48.172Z,100097.87
2022-12-15T14:31:23.932Z,100099.58
2022-12-15T14:34:04.322Z,100095.72
2022-12-15T14:36:33.822Z,100095.82
2022-12-15T14:39:05.720Z,100087.09
2022-12-15T14:41:38.478Z,100076.10
2022-12-15T14:44:36.823Z,100074.53
2022-12-15T14:46:58.077Z,100066.48
2022-12-15T14:49:32.803Z,100069.66
2022-12-15T14:52:06.411Z,100073.88
2022-12-15T14:54:50.459Z,100073.88
2022-12-15T14:57:24.190Z,100075.67
2022-12-15T14:59:54.149Z,100080.91
2022-12-15T15:02:29.460Z,100079.44
2022-12-15T15:05:04.913Z,100081.46
2022-12-15T15:07:34.184Z,100075.15
2022-12-15T15:10:21.541Z,100074.59
2022-12-15T15:12:50.559Z,100077.44
2022-12-15T15:15:21.854Z,100077.44
2022-12-15T15:17:56.065Z,100081.04
2022-12-15T15:20:33.185Z,100078.32
2022-12-15T15:23:11.811Z,100075.51
2022-12-15T15:25:41.324Z,100079.47
2022-12-15T15:28:21.469Z,100070.54
2022-12-15T15:30:51.946Z,100076.62
2022-12-15T15:33:25.551Z,100067.34
2022-12-15T15:36:04.101Z,100057.43
2022-12-15T15:38:39.632Z,100051.09
2022-12-15T15:41:17.311Z,100043.53
2022-12-15T15:43:45.160Z,100050.56
2022-12-15T15:46:15.735Z,100051.80
2022-12-15T15:48:47.838Z,100045.59
2022-12-15T15:51:15.696Z,100043.23
2022-12-15T15:53:43.594Z,100052.85
2022-12-15T15:56:13.423Z,100052.16
2022-12-15T15:58:41.772Z,100058.12
2022-12-15T16:01:13.116Z,100069.43
2022-12-15T16:03:42.013Z,100079.96
2022-12-15T16:06:21.772Z,100087.64
2022-12-15T16:08:54.821Z,100088.98
2022-12-15T16:11:27.761Z,100091.96
2022-12-15T16:13:55.517Z,100079.53
2022-12-15T16:16:25.311Z,100079.40
2022-12-15T16:18:53.086Z,100076.91
2022-12-15T16:21:23.193Z,100080.64
2022-12-15T16:23:50.960Z,100074.98
2022-12-15T16:26:30.513Z,100068.22
2022-12-15T16:28:58.686Z,100067.20
2022-12-15T16:31:37.339Z,100067.20
2022-12-15T16:34:08.579Z,100063.94
2022-12-15T16:36:36.368Z,100060.86
2022-12-15T16:39:05.087Z,100066.98
2022-12-15T16:41:32.874Z,100058.18
2022-12-15T16:44:00.644Z,100054.88
2022-12-15T16:46:28.418Z,100043.59
2022-12-15T16:48:56.100Z,100043.04
2022-12-15T16:51:35.316Z,100042.58
2022-12-15T16:54:03.216Z,100040.23
2022-12-15T16:56:30.868Z,100033.75
2022-12-15T16:59:30.931Z,100033.55
2022-12-15T17:01:46.468Z,100033.88
2022-12-15T17:04:14.301Z,100041.11
2022-12-15T17:06:42.068Z,100047.45
2022-12-15T17:09:16.178Z,100059.98
2022-12-15T17:11:43.904Z,100052.75
2022-12-15T17:14:11.681Z,100040.88
2022-12-15T17:16:39.471Z,100031.95
2022-12-15T17:19:07.283Z,100031.17
2022-12-15T17:21:38.212Z,100033.98
2022-12-15T17:24:09.917Z,100031.27
2022-12-15T17:26:38.600Z,100028.45
2022-12-15T17:29:15.806Z,100040.55
2022-12-15T17:31:43.550Z,100034.70
2022-12-15T17:34:31.875Z,100035.23
2022-12-15T17:37:01.834Z,100033.55
2022-12-15T17:39:30.604Z,100019.20
2022-12-15T17:42:00.641Z,100022.60
2022-12-15T17:44:34.291Z,100023.59
2022-12-15T17:47:03.098Z,100012.43
2022-12-15T17:49:35.613Z,100007.33
2022-12-15T17:52:08.989Z,100001.12
2022-12-15T17:54:36.913Z,100000.34
2022-12-15T17:57:04.920Z,99994.67
2022-12-15T17:59:33.378Z,99995.46
2022-12-15T18:02:01.318Z,99992.23
2022-12-15T18:04:29.248Z,99989.38
2022-12-15T18:07:01.684Z,99981.79
2022-12-15T18:09:30.778Z,99974.80
2022-12-15T18:11:58.805Z,99975.16
2022-12-15T18:14:28.636Z,99968.48
2022-12-15T18:16:56.567Z,99960.02
2022-12-15T18:19:24.588Z,99952.88
2022-12-15T18:21:52.323Z,99957.30
2022-12-15T18:24:22.652Z,99948.05
2022-12-15T18:26:50.595Z,99947.72
2022-12-15T18:29:21.372Z,99941.27
2022-12-15T18:31:50.462Z,99937.65
2022-12-15T18:34:22.128Z,99936.89
2022-12-15T18:36:51.442Z,99932.58
2022-12-15T18:39:21.587Z,99936.99
2022-12-15T18:41:49.814Z,99931.79
2022-12-15T18:44:27.017Z,99930.55
2022-12-15T18:46:55.624Z,99940.72
2022-12-15T18:49:24.465Z,99934.84
2022-12-15T18:51:52.612Z,99940.27
2022-12-15T18:54:25.383Z,99935.16
2022-12-15T18:56:53.168Z,99941.80
2022-12-15T18:59:22.630Z,99948.34
2022-12-15T19:01:50.517Z,99949.45
2022-12-15T19:04:18.209Z,99954.00
2022-12-15T19:06:46.220Z,99957.92
2022-12-15T19:09:22.832Z,99960.41
2022-12-15T19:12:20.872Z,99958.48
2022-12-15T19:14:51.087Z,99959.39
2022-12-15T19:17:40.524Z,99961.88
2022-12-15T19:20:38.901Z,99972.77
2022-12-15T19:23:07.769Z,99961.48
2022-12-15T19:25:36.371Z,99965.64
2022-12-15T19:28:04.108Z,99964.98
2022-12-15T19:30:42.074Z,99961.81
2022-12-15T19:33:11.436Z,99963.15
2022-12-15T19:35:40.459Z,99957.27
2022-12-15T19:38:09.617Z,99968.09
2022-12-15T19:40:38.649Z,99967.41
2022-12-15T19:43:06.777Z,99959.13
2022-12-15T19:45:34.885Z,99957.20
2022-12-15T19:48:02.767Z,99963.28
2022-12-15T19:50:37.189Z,99963.02
2022-12-15T19:53:11.996Z,99964.27
2022-12-15T19:55:39.875Z,99955.04
2022-12-15T19:58:30.648Z,99950.27
2022-12-15T20:01:05.317Z,99953.90
2022-12-15T20:03:33.952Z,99947.91
2022-12-15T20:06:03.413Z,99950.01
2022-12-15T20:08:35.742Z,99942.45
2022-12-15T20:11:03.573Z,99949.78
2022-12-15T20:13:32.079Z,99948.17
2022-12-15T20:16:00.057Z,99943.70
2022-12-15T20:18:27.741Z,99936.50
2022-12-15T20:20:56.678Z,99937.55
2022-12-15T20:23:27.417Z,99940.69
2022-12-15T20:25:57.114Z,99941.15
2022-12-15T20:28:30.775Z,99938.23
2022-12-15T20:30:58.944Z,99931.01
2022-12-15T20:33:26.769Z,99929.66
2022-12-15T20:35:55.443Z,99935.33
2022-12-15T20:38:34.427Z,99938.34
2022-12-15T20:41:03.773Z,99945.52
2022-12-15T20:43:33.300Z,99937.09
2022-12-15T20:46:08.745Z,99950.27
2022-12-15T20:48:37.828Z,99941.73
2022-12-15T20:51:09.728Z,99934.87
2022-12-15T20:53:38.957Z,99940.49
2022-12-15T20:56:07.331Z,99936.01
2022-12-15T20:58:41.090Z,99939.15
2022-12-15T21:01:32.897Z,99946.28
2022-12-15T21:04:03.278Z,99946.90
2022-12-15T21:06:31.748Z,99941.60
2022-12-15T21:08:59.459Z,99943.53
2022-12-15T21:11:29.109Z,99941.51
2022-12-15T21:13:59.943Z,99948.34
2022-12-15T21:16:29.640Z,99942.39
2022-12-15T21:19:26.945Z,99949.48
2022-12-15T21:21:52.283Z,99956.29
2022-12-15T21:24:26.095Z,99958.67
2022-12-15T21:26:54.108Z,99966.88
2022-12-15T21:29:25.501Z,99961.26
2022-12-15T21:31:53.312Z,99976.07
2022-12-15T21:34:21.040Z,99980.98
2022-12-15T21:36:52.402Z,99979.30
2022-12-15T21:39:26.147Z,99975.80
2022-12-15T21:41:55.056Z,99974.66
2022-12-15T21:44:23.004Z,99971.52
2022-12-15T21:46:51.606Z,99985.13
2022-12-15T21:49:19.783Z,99971.59
2022-12-15T21:51:52.081Z,99975.19
2022-12-15T21:54:28.799Z,99974.53
2022-12-15T21:56:58.538Z,99971.03
2022-12-15T21:59:32.998Z,99979.90
2022-12-15T22:02:01.943Z,99981.50
2022-12-15T22:04:33.737Z,99989.51
2022-12-15T22:07:01.652Z,99994.09
2022-12-15T22:09:29.713Z,100003.34
2022-12-15T22:11:57.901Z,100003.70
2022-12-15T22:14:30.987Z,100007.66
2022-12-15T22:17:00.361Z,100002.36
2022-12-15T22:19:28.308Z,100003.87
2022-12-15T22:21:56.019Z,100015.05
2022-12-15T22:24:23.942Z,100013.87
2022-12-15T22:26:51.615Z,100000.95
2022-12-15T22:29:22.641Z,100006.45
2022-12-15T22:31:51.779Z,100004.52
2022-12-15T22:34:24.474Z,99996.08
2022-12-15T22:36:52.326Z,99998.57
2022-12-15T22:39:20.547Z,100001.48
2022-12-15T22:41:51.358Z,100009.91
2022-12-15T22:44:28.542Z,100003.87
2022-12-15T22:46:59.380Z,100003.05
2022-12-15T22:49:35.834Z,100003.37
2022-12-15T22:52:03.987Z,100014.66
2022-12-15T22:54:33.265Z,100028.32
2022-12-15T22:57:07.506Z,100024.59
2022-12-15T22:59:42.793Z,100016.52
2022-12-15T23:02:11.879Z,100016.06
2022-12-15T23:04:39.575Z,100016.52
2022-12-15T23:07:11.225Z,100022.05
2022-12-15T23:09:39.568Z,100032.09
2022-12-15T23:12:07.430Z,100039.84
2022-12-15T23:14:53.637Z,100040.09
2022-12-15T23:17:22.531Z,100036.27
2022-12-15T23:19:50.229Z,100037.09
2022-12-15T23:22:17.929Z,100036.83
2022-12-15T23:24:45.586Z,100039.21
2022-12-15T23:27:13.832Z,100045.55
2022-12-15T23:29:41.668Z,100041.24
2022-12-15T23:32:09.334Z,100043.63
2022-12-15T23:34:37.023Z,100034.80
2022-12-15T23:37:04.688Z,100045.30
2022-12-15T23:39:32.669Z,100048.04
2022-12-15T23:42:00.363Z,100029.96
2022-12-15T23:44:28.114Z,100019.82
2022-12-15T23:46:58.461Z,100018.94
2022-12-15T23:49:26.165Z,100024.14
2022-12-15T23:51:53.822Z,100028.98
2022-12-15T23:54:22.827Z,100038.66
2022-12-15T23:56:50.461Z,100035.84
2022-12-15T23:59:19.443Z,100036.20
